Time;durP1;ratioP1;P1;durP2;ratioP2;P2;SDS_P1;SDS_P2;PMS_P1;PMS_P2;Temp;Humidity;BMP_temperature;BMP_pressure;BME280_temperature;BME280_humidity;BME280_pressure;Samples;Min_cycle;Max_cycle;Signal;HPM_P1;HPM_P2
2021/01/05 00:08:29;;;;;;;6.50;3.38;;;21.30;44.50;;;;;;21026534;28;20028;-15
2021/01/05 00:18:29;;;;;;;8.18;3.08;;;21.10;44.60;;;;;;20987369;28;20028;-15
2021/01/05 00:28:30;;;;;;;7.07;3.10;;;21.00;44.70;;;;;;20972666;28;20044;-15
2021/01/05 00:38:30;;;;;;;5.57;2.90;;;20.80;44.80;;;;;;20986687;28;20052;-15
2021/01/05 00:48:31;;;;;;;7.32;2.97;;;20.80;44.80;;;;;;20985829;28;20049;-15
2021/01/05 00:58:31;;;;;;;6.28;3.25;;;20.60;44.80;;;;;;20984916;28;20086;-15
2021/01/05 01:08:32;;;;;;;6.23;3.13;;;20.60;44.70;;;;;;20986087;28;20096;-15
2021/01/05 01:18:33;;;;;;;4.20;3.17;;;20.60;44.70;;;;;;20999842;28;20498;-15
2021/01/05 01:28:33;;;;;;;5.38;2.90;;;20.50;44.80;;;;;;20999872;28;20489;-15
2021/01/05 01:38:34;;;;;;;5.63;2.50;;;20.40;44.50;;;;;;20995416;28;20021;-15
2021/01/05 01:48:34;;;;;;;3.90;2.38;;;20.40;44.60;;;;;;20998252;28;20028;-15
2021/01/05 01:58:54;;;;;;;6.55;3.42;;;20.30;44.60;;;;;;20996956;28;20052;-15
2021/01/05 02:09:40;;;;;;;4.70;3.00;;;20.20;44.40;;;;;;20996287;28;20025;-15
2021/01/05 02:19:47;;;;;;;4.13;2.40;;;20.20;44.40;;;;;;20985650;28;20047;-14
2021/01/05 02:29:54;;;;;;;7.13;3.55;;;20.10;44.60;;;;;;20999468;22;20518;-15
2021/01/05 02:40:16;;;;;;;5.15;2.97;;;20.00;44.60;;;;;;20993568;28;20524;-16
2021/01/05 02:51:03;;;;;;;4.35;2.63;;;19.90;44.50;;;;;;20992866;28;20043;-14
2021/01/05 03:01:28;;;;;;;3.80;2.78;;;19.80;44.70;;;;;;20992420;28;20025;-15
2021/01/05 03:11:56;;;;;;;5.47;3.47;;;19.80;44.60;;;;;;20992153;28;20028;-16
2021/01/05 03:22:03;;;;;;;4.78;2.95;;;19.80;44.60;;;;;;20993034;28;20102;-15
2021/01/05 03:32:07;;;;;;;4.13;2.72;;;19.70;44.60;;;;;;20991750;28;20060;-15
2021/01/05 03:42:08;;;;;;;4.40;2.80;;;19.60;44.60;;;;;;20989207;28;20020;-15
2021/01/05 03:52:08;;;;;;;4.75;2.88;;;19.60;45.20;;;;;;20988140;28;20023;-15
2021/01/05 04:02:09;;;;;;;5.47;3.20;;;19.50;44.60;;;;;;20987116;28;20028;-15
2021/01/05 04:12:10;;;;;;;5.45;3.08;;;19.50;44.60;;;;;;20987627;28;20029;-15
2021/01/05 04:22:11;;;;;;;5.18;2.70;;;19.40;44.50;;;;;;20986264;28;20099;-15
2021/01/05 04:32:11;;;;;;;5.15;3.20;;;19.40;44.50;;;;;;20985627;28;20509;-14
2021/01/05 04:42:27;;;;;;;5.93;2.73;;;19.40;44.60;;;;;;20984531;28;20036;-14
2021/01/05 04:52:39;;;;;;;4.60;2.85;;;19.30;44.40;;;;;;20984905;28;20078;-14
2021/01/05 05:03:12;;;;;;;5.10;3.03;;;19.30;44.50;;;;;;20984481;28;20020;-14
2021/01/05 05:13:54;;;;;;;5.40;2.33;;;19.30;44.50;;;;;;20976789;28;20036;-15
2021/01/05 05:24:13;;;;;;;5.95;3.00;;;19.30;44.40;;;;;;20954377;28;20037;-14
2021/01/05 05:34:40;;;;;;;4.67;2.30;;;19.80;43.90;;;;;;20953798;28;20718;-14
2021/01/05 05:44:48;;;;;;;6.05;2.70;;;20.50;42.60;;;;;;20957599;28;20496;-15
2021/01/05 05:54:49;;;;;;;4.15;2.58;;;21.00;41.50;;;;;;20954888;28;20039;-15
2021/01/05 06:04:54;;;;;;;5.55;2.58;;;21.80;40.10;;;;;;20966094;28;20127;-15
2021/01/05 06:14:55;;;;;;;5.22;3.20;;;22.40;38.90;;;;;;20929273;28;20021;-15
2021/01/05 06:24:55;;;;;;;10.45;2.85;;;22.90;37.90;;;;;;20950560;28;20063;-15
2021/01/05 06:34:56;;;;;;;16.35;5.00;;;22.70;38.00;;;;;;20990598;28;20112;-15
2021/01/05 06:44:56;;;;;;;20.48;5.30;;;22.50;39.00;;;;;;20971723;28;20111;-15
2021/01/05 06:54:57;;;;;;;19.10;5.13;;;22.20;39.50;;;;;;20992146;28;20056;-15
2021/01/05 07:04:57;;;;;;;16.92;4.47;;;22.00;39.90;;;;;;20991762;28;20650;-15
2021/01/05 07:14:59;;;;;;;16.35;4.50;;;21.80;40.10;;;;;;20991288;28;20037;-15
2021/01/05 07:24:59;;;;;;;13.00;4.07;;;21.70;40.20;;;;;;20990404;28;20108;-15
2021/01/05 07:35:00;;;;;;;9.63;4.68;;;21.70;40.20;;;;;;20989490;28;20059;-15
2021/01/05 07:45:05;;;;;;;6.15;3.45;;;21.50;40.30;;;;;;20988592;28;20071;-15
2021/01/05 07:55:07;;;;;;;11.07;4.03;;;21.60;40.30;;;;;;20987262;28;20508;-15
2021/01/05 08:05:10;;;;;;;10.18;4.05;;;21.50;40.50;;;;;;20987237;28;20040;-15
2021/01/05 08:15:23;;;;;;;6.78;3.05;;;21.50;40.40;;;;;;20986567;28;20493;-15
2021/01/05 08:25:24;;;;;;;10.00;3.30;;;21.40;40.50;;;;;;20992037;28;20028;-15
2021/01/05 08:35:25;;;;;;;8.80;3.08;;;21.30;40.70;;;;;;20996827;22;20113;-15
2021/01/05 08:45:25;;;;;;;10.07;4.53;;;21.00;41.20;;;;;;20992190;28;20507;-14
2021/01/05 08:55:27;;;;;;;7.07;3.40;;;20.80;41.60;;;;;;20985341;28;20028;-14
2021/01/05 09:05:27;;;;;;;6.18;3.13;;;20.50;42.20;;;;;;20984747;28;20017;-15
2021/01/05 09:15:28;;;;;;;6.60;3.22;;;20.30;42.50;;;;;;20986181;28;20031;-15
2021/01/05 09:25:28;;;;;;;7.75;3.63;;;20.20;42.60;;;;;;20986819;28;20028;-15
2021/01/05 09:35:29;;;;;;;6.35;3.70;;;20.10;42.90;;;;;;20994713;28;20029;-15
2021/01/05 09:45:30;;;;;;;6.38;3.83;;;20.00;42.80;;;;;;20999093;28;20040;-16
2021/01/05 09:55:31;;;;;;;7.55;3.83;;;19.90;42.80;;;;;;20999541;28;20036;-15
2021/01/05 10:05:32;;;;;;;4.88;2.70;;;19.90;43.10;;;;;;20997906;28;20043;-15
2021/01/05 10:15:32;;;;;;;5.70;3.00;;;19.80;43.10;;;;;;20996498;28;20029;-15
2021/01/05 10:25:33;;;;;;;5.57;3.38;;;19.70;43.30;;;;;;20996434;28;20043;-15
2021/01/05 10:35:34;;;;;;;5.93;3.30;;;19.60;43.50;;;;;;20995623;28;20048;-15
2021/01/05 10:45:34;;;;;;;5.47;2.90;;;19.60;43.40;;;;;;21000697;28;20541;-15
2021/01/05 10:55:35;;;;;;;5.70;3.20;;;19.60;43.40;;;;;;20993281;28;20085;-14
2021/01/05 11:05:35;;;;;;;5.28;2.97;;;19.50;43.50;;;;;;20992781;28;20451;-14
2021/01/05 11:15:36;;;;;;;5.38;3.00;;;19.40;43.80;;;;;;20991272;28;20344;-14
2021/01/05 11:25:37;;;;;;;4.40;2.53;;;19.40;43.70;;;;;;20990939;28;20381;-14
2021/01/05 11:35:42;;;;;;;5.47;2.67;;;19.30;43.70;;;;;;20989695;28;20028;-14
2021/01/05 11:45:42;;;;;;;5.72;3.05;;;19.30;43.80;;;;;;20989654;28;20040;-14
2021/01/05 11:55:43;;;;;;;3.28;2.35;;;19.30;43.80;;;;;;20989230;28;20031;-14
2021/01/05 12:05:43;;;;;;;4.97;3.30;;;19.20;43.80;;;;;;20988518;28;20048;-15
2021/01/05 12:15:44;;;;;;;5.07;2.90;;;19.20;43.90;;;;;;20993689;28;20037;-14
2021/01/05 12:25:45;;;;;;;5.30;3.50;;;19.10;43.90;;;;;;20991098;28;20513;-14
2021/01/05 12:35:45;;;;;;;3.97;2.67;;;19.10;43.90;;;;;;20986540;28;20480;-14
2021/01/05 12:45:46;;;;;;;5.28;2.97;;;19.10;43.90;;;;;;20986385;28;20024;-15
2021/01/05 12:55:46;;;;;;;3.75;2.70;;;19.10;44.30;;;;;;20985573;28;20472;-15
2021/01/05 13:05:47;;;;;;;3.88;2.75;;;19.00;43.90;;;;;;20992078;28;20029;-14
2021/01/05 13:15:48;;;;;;;3.78;2.60;;;19.00;43.80;;;;;;21001420;28;20560;-14
2021/01/05 13:25:48;;;;;;;3.42;2.30;;;19.00;43.90;;;;;;21001063;28;20103;-14
2021/01/05 13:35:49;;;;;;;5.32;2.47;;;18.90;43.90;;;;;;21001437;28;20488;-15
2021/01/05 13:45:50;;;;;;;3.75;2.50;;;18.90;43.90;;;;;;20999654;28;20429;-15
2021/01/05 13:55:50;;;;;;;4.05;2.65;;;18.80;44.00;;;;;;20998837;28;20032;-16
2021/01/05 14:05:51;;;;;;;3.95;2.58;;;18.90;44.00;;;;;;20999812;28;20031;-15
2021/01/05 14:15:51;;;;;;;4.00;2.35;;;19.50;43.10;;;;;;20982864;28;20052;-16
2021/01/05 14:25:52;;;;;;;3.60;2.15;;;20.10;41.80;;;;;;20996674;28;20480;-14
2021/01/05 14:35:52;;;;;;;4.85;2.53;;;20.70;40.70;;;;;;20999962;22;20132;-16
2021/01/05 14:45:53;;;;;;;3.58;2.20;;;21.30;39.80;;;;;;20994012;28;20021;-14
2021/01/05 14:55:54;;;;;;;3.13;1.77;;;21.80;39.00;;;;;;20992645;28;20496;-15
2021/01/05 15:05:54;;;;;;;3.17;1.60;;;22.30;38.20;;;;;;20991505;28;20514;-15
2021/01/05 15:15:55;;;;;;;3.97;2.35;;;22.70;37.70;;;;;;20990523;28;20115;-15
2021/01/05 15:25:55;;;;;;;3.95;2.00;;;23.10;37.20;;;;;;20989663;28;20056;-14
2021/01/05 15:35:56;;;;;;;3.05;1.75;;;23.40;36.80;;;;;;20989760;28;20052;-15
2021/01/05 15:45:56;;;;;;;3.45;1.92;;;23.60;36.50;;;;;;20989667;28;20442;-15
2021/01/05 15:55:57;;;;;;;3.00;1.95;;;23.80;36.00;;;;;;20988471;28;20028;-15
2021/01/05 16:05:57;;;;;;;2.88;1.85;;;24.00;36.40;;;;;;20987784;28;20039;-15
2021/01/05 16:15:58;;;;;;;2.70;1.60;;;24.20;35.80;;;;;;20986717;28;20032;-15
2021/01/05 16:25:59;;;;;;;2.67;1.50;;;24.40;35.60;;;;;;20987266;28;20020;-15
2021/01/05 16:36:00;;;;;;;2.08;1.52;;;24.50;35.50;;;;;;20986087;28;20028;-15
2021/01/05 16:46:01;;;;;;;2.55;1.52;;;24.70;35.40;;;;;;20972004;28;20521;-15
2021/01/05 16:56:01;;;;;;;3.05;1.48;;;24.80;35.30;;;;;;20984392;28;20111;-15
2021/01/05 17:06:02;;;;;;;2.75;1.15;;;24.90;35.10;;;;;;20986880;28;20407;-15
2021/01/05 17:16:03;;;;;;;6.82;1.75;;;24.70;35.60;;;;;;20970541;28;20420;-15
2021/01/05 17:26:04;;;;;;;3.97;2.20;;;24.70;35.50;;;;;;20984544;28;20106;-15
2021/01/05 17:36:05;;;;;;;7.07;2.72;;;24.40;36.30;;;;;;20935171;28;20566;-15
2021/01/05 17:46:06;;;;;;;7.60;2.58;;;24.30;36.40;;;;;;20969567;28;20036;-15
2021/01/05 17:56:06;;;;;;;9.52;5.93;;;24.10;36.80;;;;;;20976137;28;20111;-15
2021/01/05 18:06:07;;;;;;;13.18;6.35;;;24.20;36.30;;;;;;20980785;28;20499;-16
2021/01/05 18:16:08;;;;;;;10.13;6.25;;;24.00;36.70;;;;;;20994231;28;20519;-16
2021/01/05 18:26:09;;;;;;;9.93;6.78;;;24.10;36.70;;;;;;20996560;28;20369;-16
2021/01/05 18:36:10;;;;;;;11.88;6.32;;;24.10;36.70;;;;;;20975933;28;20029;-15
2021/01/05 18:46:11;;;;;;;10.15;6.50;;;24.00;37.00;;;;;;20967963;28;20055;-15
2021/01/05 18:56:11;;;;;;;7.53;5.82;;;24.10;36.70;;;;;;20979990;28;20485;-15
2021/01/05 19:06:24;;;;;;;9.95;5.63;;;23.90;37.00;;;;;;20993062;28;20081;-15
2021/01/05 19:16:27;;;;;;;6.68;5.00;;;24.10;36.80;;;;;;20992376;28;20047;-15
2021/01/05 19:26:28;;;;;;;6.57;5.78;;;24.10;36.90;;;;;;20991583;28;20029;-15
2021/01/05 19:36:29;;;;;;;8.40;4.68;;;24.00;37.00;;;;;;20989390;28;20451;-15
2021/01/05 19:46:31;;;;;;;7.00;4.88;;;24.00;37.00;;;;;;20989098;28;20021;-14
2021/01/05 19:56:32;;;;;;;7.88;5.32;;;23.90;37.20;;;;;;20923842;28;20446;-14
2021/01/05 20:06:33;;;;;;;8.35;5.43;;;24.00;37.10;;;;;;20938929;28;20021;-16
2021/01/05 20:16:33;;;;;;;10.48;6.93;;;23.80;37.30;;;;;;20956353;28;20028;-15
2021/01/05 20:26:34;;;;;;;13.65;7.03;;;23.90;37.20;;;;;;20986382;28;20491;-14
2021/01/05 20:36:45;;;;;;;33.30;7.82;;;24.00;37.30;;;;;;20986588;28;20107;-15
2021/01/05 20:46:45;;;;;;;13.80;7.07;;;24.10;37.30;;;;;;20985972;28;20027;-16
2021/01/05 20:56:46;;;;;;;11.55;5.95;;;24.00;37.60;;;;;;20934929;28;20720;-15
2021/01/05 21:06:51;;;;;;;13.93;6.70;;;24.00;38.00;;;;;;20897243;28;20529;-15
2021/01/05 21:16:59;;;;;;;10.32;6.80;;;24.10;38.20;;;;;;20935021;28;20028;-15
2021/01/05 21:27:00;;;;;;;13.07;6.07;;;23.80;39.10;;;;;;20979784;28;20085;-16
2021/01/05 21:37:01;;;;;;;10.50;6.10;;;23.60;39.90;;;;;;20996156;28;20033;-16
2021/01/05 21:47:01;;;;;;;8.40;5.57;;;23.20;40.60;;;;;;20976732;28;20060;-15
2021/01/05 21:57:02;;;;;;;9.07;5.60;;;23.00;41.00;;;;;;20983061;28;20064;-15
2021/01/05 22:07:03;;;;;;;8.32;5.38;;;22.60;41.30;;;;;;20971037;28;20051;-15
2021/01/05 22:17:03;;;;;;;10.77;6.07;;;22.30;41.80;;;;;;20996907;28;20020;-15
2021/01/05 22:27:04;;;;;;;14.75;5.03;;;22.00;42.60;;;;;;20969241;28;20112;-15
2021/01/05 22:37:05;;;;;;;9.80;4.38;;;21.90;43.00;;;;;;21008097;28;20040;-15
2021/01/05 22:47:05;;;;;;;11.20;4.33;;;21.60;43.20;;;;;;20975776;28;20033;-15
2021/01/05 22:57:07;;;;;;;11.93;4.85;;;21.50;43.40;;;;;;20933696;28;20083;-15
2021/01/05 23:07:08;;;;;;;11.15;4.30;;;21.40;43.40;;;;;;20962343;28;20029;-15
2021/01/05 23:17:09;;;;;;;7.60;3.53;;;21.30;43.40;;;;;;20973078;28;20048;-15
2021/01/05 23:27:10;;;;;;;8.18;4.28;;;21.10;43.50;;;;;;20998502;28;20541;-14
2021/01/05 23:37:10;;;;;;;13.98;4.50;;;21.00;43.40;;;;;;20997423;28;20425;-15
2021/01/05 23:47:11;;;;;;;9.85;3.08;;;20.90;43.50;;;;;;21001949;28;20040;-15
2021/01/05 23:57:11;;;;;;;7.22;3.00;;;20.90;43.60;;;;;;21000725;28;20039;-15
